Time;durP1;ratioP1;P1;durP2;ratioP2;P2;SDS_P1;SDS_P2;PMS_P1;PMS_P2;Temp;Humidity;BMP_temperature;BMP_pressure;BME280_temperature;BME280_humidity;BME280_pressure;Samples;Min_cycle;Max_cycle;Signal;HPM_P1;HPM_P2
2022/03/31 00:00:57;;;;;;;5.22;1.77;;;;;;;;;;6159543;23;20475;-86
2022/03/31 00:03:23;;;;;;;5.78;1.10;;;;;;;;;;6135076;23;20028;-86
2022/03/31 00:05:50;;;;;;;3.63;1.30;;;;;;;;;;6160269;23;20056;-87
2022/03/31 00:08:17;;;;;;;2.05;1.00;;;;;;;;;;6135578;23;20045;-87
2022/03/31 00:10:43;;;;;;;5.32;1.42;;;;;;;;;;6134925;23;20021;-87
2022/03/31 00:13:11;;;;;;;3.58;1.40;;;;;;;;;;6159313;23;20453;-86
2022/03/31 00:15:37;;;;;;;1.80;1.45;;;;;;;;;;6136257;23;20496;-86
2022/03/31 00:18:04;;;;;;;4.55;1.95;;;;;;;;;;6135990;23;20013;-85
2022/03/31 00:20:30;;;;;;;2.72;1.30;;;;;;;;;;6136439;23;20021;-86
2022/03/31 00:22:56;;;;;;;4.10;1.42;;;;;;;;;;6139224;23;20075;-86
2022/03/31 00:25:23;;;;;;;2.65;1.20;;;;;;;;;;6139844;23;20574;-86
2022/03/31 00:27:50;;;;;;;4.70;1.63;;;;;;;;;;6139918;23;20013;-85
2022/03/31 00:30:16;;;;;;;2.10;1.17;;;;;;;;;;6139056;23;20017;-86
2022/03/31 00:32:42;;;;;;;2.45;1.17;;;;;;;;;;6162454;23;20063;-87
2022/03/31 00:35:10;;;;;;;3.03;1.35;;;;;;;;;;6163136;23;20064;-87
2022/03/31 00:37:36;;;;;;;4.90;1.20;;;;;;;;;;6138292;23;20021;-87
2022/03/31 00:40:03;;;;;;;7.57;1.77;;;;;;;;;;6138458;23;20024;-85
2022/03/31 00:42:29;;;;;;;2.10;1.00;;;;;;;;;;6138545;23;20049;-87
2022/03/31 00:44:55;;;;;;;5.35;1.65;;;;;;;;;;6138310;23;20017;-87
2022/03/31 00:47:21;;;;;;;8.40;1.23;;;;;;;;;;6137901;23;20048;-88
2022/03/31 00:49:49;;;;;;;2.58;1.30;;;;;;;;;;6138044;23;20484;-89
2022/03/31 00:52:15;;;;;;;4.18;1.40;;;;;;;;;;6137401;23;20024;-88
2022/03/31 00:54:41;;;;;;;3.70;1.50;;;;;;;;;;6138737;23;20028;-88
2022/03/31 00:57:10;;;;;;;4.15;1.90;;;;;;;;;;6163802;23;20021;-88
2022/03/31 00:59:37;;;;;;;1.65;1.55;;;;;;;;;;6139200;23;20350;-88
2022/03/31 01:02:03;;;;;;;4.45;1.83;;;;;;;;;;6163079;23;20023;-87
2022/03/31 01:04:29;;;;;;;2.95;1.13;;;;;;;;;;6164236;23;20017;-88
2022/03/31 01:06:56;;;;;;;1.52;1.23;;;;;;;;;;6163206;23;20013;-87
2022/03/31 01:09:22;;;;;;;3.95;1.45;;;;;;;;;;6190626;23;20021;-88
2022/03/31 01:11:48;;;;;;;6.88;1.58;;;;;;;;;;6138283;23;20044;-87
2022/03/31 01:14:15;;;;;;;5.60;1.40;;;;;;;;;;6162544;23;20021;-88
2022/03/31 01:16:41;;;;;;;3.38;2.00;;;;;;;;;;6163732;23;20392;-87
2022/03/31 01:19:08;;;;;;;6.20;1.38;;;;;;;;;;6163313;23;20112;-87
2022/03/31 01:21:38;;;;;;;13.77;1.80;;;;;;;;;;6190262;23;20045;-87
2022/03/31 01:24:06;;;;;;;2.00;1.10;;;;;;;;;;6190164;23;20013;-86
2022/03/31 01:26:33;;;;;;;1.65;1.10;;;;;;;;;;6162342;23;20121;-86
2022/03/31 01:28:59;;;;;;;3.00;1.48;;;;;;;;;;6161825;23;20076;-87
2022/03/31 01:31:26;;;;;;;2.85;1.27;;;;;;;;;;6161811;23;20028;-86
2022/03/31 01:33:53;;;;;;;2.75;1.30;;;;;;;;;;6135228;23;20372;-87
2022/03/31 01:36:19;;;;;;;5.13;1.30;;;;;;;;;;6136380;23;20013;-87
2022/03/31 01:38:46;;;;;;;5.10;1.40;;;;;;;;;;6136135;23;20450;-86
2022/03/31 01:41:12;;;;;;;6.60;2.05;;;;;;;;;;6160314;23;20021;-87
2022/03/31 01:43:38;;;;;;;6.70;1.52;;;;;;;;;;6161161;23;20021;-87
2022/03/31 01:46:07;;;;;;;4.45;1.25;;;;;;;;;;6135680;23;20019;-85
2022/03/31 01:48:34;;;;;;;3.10;1.63;;;;;;;;;;6160656;23;20020;-85
2022/03/31 01:51:00;;;;;;;1.88;1.23;;;;;;;;;;6186909;23;20512;-87
2022/03/31 01:53:26;;;;;;;1.83;1.23;;;;;;;;;;6135359;23;20052;-86
2022/03/31 01:55:52;;;;;;;3.40;1.27;;;;;;;;;;6135129;23;20056;-86
2022/03/31 01:58:18;;;;;;;1.88;1.27;;;;;;;;;;6186708;23;20013;-87
2022/03/31 02:00:44;;;;;;;1.45;1.25;;;;;;;;;;6160858;23;20017;-87
2022/03/31 02:03:13;;;;;;;4.15;1.55;;;;;;;;;;6135703;23;20021;-87
2022/03/31 02:05:39;;;;;;;6.95;1.70;;;;;;;;;;6135043;23;20021;-87
2022/03/31 02:08:05;;;;;;;8.52;1.73;;;;;;;;;;6186115;23;20013;-87
2022/03/31 02:10:31;;;;;;;4.93;1.65;;;;;;;;;;6185737;23;20353;-87
2022/03/31 02:12:57;;;;;;;2.05;1.63;;;;;;;;;;6134801;23;20354;-87
2022/03/31 02:15:23;;;;;;;1.90;1.60;;;;;;;;;;6159725;23;20021;-87
2022/03/31 02:17:49;;;;;;;8.77;1.95;;;;;;;;;;6185960;23;20013;-87
2022/03/31 02:20:16;;;;;;;5.55;2.67;;;;;;;;;;6160028;23;20056;-86
2022/03/31 02:22:42;;;;;;;5.20;2.90;;;;;;;;;;6134947;23;20017;-87
2022/03/31 02:25:09;;;;;;;4.32;2.70;;;;;;;;;;6159848;23;20024;-86
2022/03/31 02:27:36;;;;;;;6.07;3.15;;;;;;;;;;6186598;23;20049;-87
2022/03/31 02:30:03;;;;;;;6.07;3.00;;;;;;;;;;6186213;23;20457;-87
2022/03/31 02:32:29;;;;;;;7.05;3.20;;;;;;;;;;6160068;23;20013;-88
2022/03/31 02:34:55;;;;;;;3.92;3.13;;;;;;;;;;6159560;23;20013;-86
2022/03/31 02:37:21;;;;;;;5.38;3.88;;;;;;;;;;6158481;23;20024;-87
2022/03/31 02:39:47;;;;;;;8.98;3.97;;;;;;;;;;6159663;23;20021;-87
2022/03/31 02:42:14;;;;;;;6.55;3.97;;;;;;;;;;6160550;23;20345;-86
2022/03/31 02:44:40;;;;;;;9.60;4.00;;;;;;;;;;6186766;23;20023;-87
2022/03/31 02:47:06;;;;;;;4.55;3.67;;;;;;;;;;6159955;23;20021;-87
2022/03/31 02:49:32;;;;;;;4.03;3.63;;;;;;;;;;6135723;23;20017;-86
2022/03/31 02:51:59;;;;;;;4.60;3.80;;;;;;;;;;6135778;23;20021;-89
2022/03/31 02:57:09;;;;;;;6.22;4.35;;;;;;;;;;6160612;23;20032;-87
2022/03/31 02:59:35;;;;;;;5.95;4.38;;;;;;;;;;6186294;23;20021;-88
2022/03/31 03:02:01;;;;;;;5.65;4.68;;;;;;;;;;6161361;23;20048;-87
2022/03/31 03:04:27;;;;;;;7.75;4.30;;;;;;;;;;6160728;23;20020;-87
2022/03/31 03:06:54;;;;;;;7.80;4.63;;;;;;;;;;6187008;23;20032;-87
2022/03/31 03:09:20;;;;;;;5.80;4.70;;;;;;;;;;6135222;23;20021;-86
2022/03/31 03:11:46;;;;;;;8.82;5.13;;;;;;;;;;6186930;23;20019;-86
2022/03/31 03:14:13;;;;;;;8.45;4.28;;;;;;;;;;6186899;23;20387;-86
2022/03/31 03:16:40;;;;;;;4.53;3.67;;;;;;;;;;6136084;23;20327;-88
2022/03/31 03:19:06;;;;;;;3.80;3.50;;;;;;;;;;6159407;23;20096;-85
2022/03/31 03:21:32;;;;;;;5.28;3.22;;;;;;;;;;6135096;23;20096;-87
2022/03/31 03:23:59;;;;;;;4.78;3.53;;;;;;;;;;6135320;23;20025;-85
2022/03/31 03:26:25;;;;;;;4.47;3.50;;;;;;;;;;6135098;23;20017;-86
2022/03/31 03:28:51;;;;;;;4.40;2.92;;;;;;;;;;6135227;23;20021;-85
2022/03/31 03:31:17;;;;;;;4.80;2.28;;;;;;;;;;6134744;23;20461;-84
2022/03/31 03:33:43;;;;;;;2.30;2.10;;;;;;;;;;6134979;23;20024;-85
2022/03/31 03:36:12;;;;;;;3.10;1.70;;;;;;;;;;6159168;23;20029;-85
2022/03/31 03:38:38;;;;;;;3.05;2.08;;;;;;;;;;6158251;23;20017;-85
2022/03/31 03:41:04;;;;;;;2.70;2.15;;;;;;;;;;6134150;23;20052;-83
2022/03/31 03:43:31;;;;;;;2.97;2.67;;;;;;;;;;6158935;23;20358;-86
2022/03/31 03:45:57;;;;;;;3.90;2.70;;;;;;;;;;6159137;23;20017;-84
2022/03/31 03:48:23;;;;;;;3.05;2.40;;;;;;;;;;6135163;23;20024;-84
2022/03/31 03:50:49;;;;;;;4.22;3.22;;;;;;;;;;6159177;23;20052;-84
2022/03/31 03:53:15;;;;;;;4.40;3.10;;;;;;;;;;6134543;23;20103;-84
2022/03/31 03:55:41;;;;;;;6.00;2.78;;;;;;;;;;6134489;23;20024;-85
2022/03/31 03:58:08;;;;;;;3.63;3.28;;;;;;;;;;6158722;23;20075;-85
2022/03/31 04:00:34;;;;;;;2.65;2.45;;;;;;;;;;6159107;23;20446;-85
2022/03/31 04:03:00;;;;;;;2.90;2.13;;;;;;;;;;6134882;23;20013;-85
2022/03/31 04:05:26;;;;;;;2.95;2.42;;;;;;;;;;6134281;23;20021;-85
2022/03/31 04:07:52;;;;;;;2.80;2.42;;;;;;;;;;6133958;23;20390;-86
2022/03/31 04:10:18;;;;;;;6.32;3.45;;;;;;;;;;6158354;23;20020;-84
2022/03/31 04:12:44;;;;;;;5.22;4.53;;;;;;;;;;6158199;23;20045;-84
2022/03/31 04:15:13;;;;;;;5.60;4.28;;;;;;;;;;6134081;23;20354;-84
2022/03/31 04:17:39;;;;;;;6.78;5.05;;;;;;;;;;6158379;23;20020;-86
2022/03/31 04:20:06;;;;;;;5.80;4.00;;;;;;;;;;6133950;23;20017;-87
2022/03/31 04:22:33;;;;;;;8.43;4.63;;;;;;;;;;6160108;23;20067;-85
2022/03/31 04:24:59;;;;;;;3.40;3.10;;;;;;;;;;6159713;23;20028;-86
2022/03/31 04:27:25;;;;;;;4.47;3.13;;;;;;;;;;6135258;23;20020;-87
2022/03/31 04:29:52;;;;;;;3.95;3.40;;;;;;;;;;6135590;23;20028;-86
2022/03/31 04:32:18;;;;;;;3.78;3.00;;;;;;;;;;6160034;23;20013;-86
2022/03/31 04:34:44;;;;;;;3.22;2.92;;;;;;;;;;6135462;23;20024;-84
2022/03/31 04:37:10;;;;;;;5.32;2.88;;;;;;;;;;6133509;23;20041;-85
2022/03/31 04:39:36;;;;;;;6.85;3.65;;;;;;;;;;6159695;23;20018;-86
2022/03/31 04:42:02;;;;;;;5.63;2.85;;;;;;;;;;6160248;23;20014;-87
2022/03/31 04:44:29;;;;;;;4.90;3.28;;;;;;;;;;6160271;23;20528;-86
2022/03/31 04:46:55;;;;;;;5.25;2.30;;;;;;;;;;6135360;23;20096;-86
2022/03/31 04:49:21;;;;;;;3.90;2.67;;;;;;;;;;6160044;23;20355;-85
2022/03/31 04:51:47;;;;;;;5.28;2.70;;;;;;;;;;6135317;23;20021;-86
2022/03/31 04:54:13;;;;;;;6.32;2.40;;;;;;;;;;6133897;23;20017;-83
2022/03/31 04:56:39;;;;;;;3.92;2.67;;;;;;;;;;6134627;23;20048;-86
2022/03/31 04:59:06;;;;;;;3.88;2.33;;;;;;;;;;6134735;23;20462;-86
2022/03/31 05:01:32;;;;;;;3.45;2.28;;;;;;;;;;6135232;23;20019;-86
2022/03/31 05:03:58;;;;;;;5.75;4.78;;;;;;;;;;6135349;23;20025;-85
2022/03/31 05:06:24;;;;;;;3.33;2.63;;;;;;;;;;6159897;23;20013;-85
2022/03/31 05:08:51;;;;;;;2.72;2.45;;;;;;;;;;6136638;23;20079;-85
2022/03/31 05:11:17;;;;;;;3.60;2.40;;;;;;;;;;6162419;23;20350;-85
2022/03/31 05:13:43;;;;;;;4.15;2.70;;;;;;;;;;6162528;23;20342;-85
2022/03/31 05:16:09;;;;;;;5.50;3.13;;;;;;;;;;6137586;23;20023;-87
2022/03/31 05:18:35;;;;;;;5.82;2.92;;;;;;;;;;6137630;23;20421;-84
2022/03/31 05:21:02;;;;;;;5.45;3.10;;;;;;;;;;6162694;23;20017;-86
2022/03/31 05:23:28;;;;;;;4.88;2.75;;;;;;;;;;6162153;23;20459;-85
2022/03/31 05:25:54;;;;;;;2.83;2.58;;;;;;;;;;6138635;23;20025;-85
2022/03/31 05:28:21;;;;;;;12.18;2.80;;;;;;;;;;6138636;23;20049;-86
2022/03/31 05:30:47;;;;;;;3.47;2.90;;;;;;;;;;6138501;23;20036;-84
2022/03/31 05:33:13;;;;;;;3.55;3.20;;;;;;;;;;6162899;23;20024;-86
2022/03/31 05:35:40;;;;;;;2.90;2.58;;;;;;;;;;6163383;23;20017;-85
2022/03/31 05:38:07;;;;;;;3.58;3.22;;;;;;;;;;6188066;23;20512;-85
2022/03/31 05:40:33;;;;;;;3.60;3.30;;;;;;;;;;6161620;23;20363;-86
2022/03/31 05:42:59;;;;;;;6.88;3.35;;;;;;;;;;6161515;23;20013;-84
2022/03/31 05:45:25;;;;;;;3.35;3.03;;;;;;;;;;6162250;23;20039;-84
2022/03/31 05:47:52;;;;;;;3.95;3.55;;;;;;;;;;6161446;23;20104;-85
2022/03/31 05:50:18;;;;;;;3.38;3.08;;;;;;;;;;6160592;23;20024;-85
2022/03/31 05:52:44;;;;;;;5.95;4.40;;;;;;;;;;6136224;23;20402;-85
2022/03/31 05:55:14;;;;;;;5.00;4.50;;;;;;;;;;6161497;23;20017;-86
2022/03/31 05:57:40;;;;;;;8.20;4.85;;;;;;;;;;6187405;23;20472;-85
2022/03/31 06:00:08;;;;;;;4.70;3.85;;;;;;;;;;6160938;23;20023;-85
2022/03/31 06:02:34;;;;;;;8.60;5.93;;;;;;;;;;6160775;23;20060;-85
2022/03/31 06:05:01;;;;;;;6.45;5.13;;;;;;;;;;6137014;23;20065;-84
2022/03/31 06:07:27;;;;;;;8.35;5.15;;;;;;;;;;6187859;23;20017;-83
2022/03/31 06:09:53;;;;;;;7.57;5.13;;;;;;;;;;6160654;23;20024;-84
2022/03/31 06:12:19;;;;;;;6.40;5.40;;;;;;;;;;6160897;23;20059;-85
2022/03/31 06:14:46;;;;;;;4.97;3.75;;;;;;;;;;6161178;23;20434;-85
2022/03/31 06:17:12;;;;;;;5.30;3.17;;;;;;;;;;6188426;23;20020;-85
2022/03/31 06:19:38;;;;;;;4.05;3.58;;;;;;;;;;6161495;23;20354;-85
2022/03/31 06:22:05;;;;;;;3.50;3.20;;;;;;;;;;6135966;23;20059;-84
2022/03/31 06:24:31;;;;;;;3.78;3.47;;;;;;;;;;6161263;23;20516;-83
2022/03/31 06:26:58;;;;;;;4.18;3.67;;;;;;;;;;6136278;23;20024;-84
2022/03/31 06:29:25;;;;;;;3.75;3.45;;;;;;;;;;6187171;23;20393;-84
2022/03/31 06:31:53;;;;;;;4.35;3.60;;;;;;;;;;6187517;23;20017;-84
2022/03/31 06:34:20;;;;;;;4.10;3.60;;;;;;;;;;6136055;23;20017;-84
2022/03/31 06:36:46;;;;;;;4.40;4.00;;;;;;;;;;6160718;23;20021;-83
2022/03/31 06:39:13;;;;;;;4.45;4.00;;;;;;;;;;6160163;23;20091;-84
2022/03/31 06:41:40;;;;;;;4.53;4.13;;;;;;;;;;6134740;23;20430;-83
2022/03/31 06:44:08;;;;;;;3.95;3.55;;;;;;;;;;6135644;23;20099;-84
2022/03/31 06:46:34;;;;;;;4.03;3.60;;;;;;;;;;6160052;23;20346;-84
2022/03/31 06:49:01;;;;;;;5.10;4.43;;;;;;;;;;6134952;23;20017;-85
2022/03/31 06:51:28;;;;;;;3.95;3.55;;;;;;;;;;6185872;23;20024;-84
2022/03/31 06:53:59;;;;;;;4.07;3.67;;;;;;;;;;6160104;23;20055;-83
2022/03/31 06:56:29;;;;;;;4.78;4.28;;;;;;;;;;6161880;23;20025;-85
2022/03/31 06:58:55;;;;;;;4.32;3.92;;;;;;;;;;6137060;23;20427;-84
2022/03/31 07:01:22;;;;;;;4.93;4.43;;;;;;;;;;6137060;23;20030;-84
2022/03/31 07:03:48;;;;;;;5.22;4.65;;;;;;;;;;6137243;23;20092;-85
2022/03/31 07:06:14;;;;;;;5.30;4.47;;;;;;;;;;6161525;23;20023;-84
2022/03/31 07:08:40;;;;;;;5.20;3.95;;;;;;;;;;6136168;23;20024;-83
2022/03/31 07:11:07;;;;;;;4.82;4.22;;;;;;;;;;6161025;23;20016;-84
2022/03/31 07:13:34;;;;;;;4.68;4.18;;;;;;;;;;6136151;23;20023;-85
2022/03/31 07:16:00;;;;;;;5.00;4.50;;;;;;;;;;6160740;23;20017;-84
2022/03/31 07:18:26;;;;;;;4.78;4.18;;;;;;;;;;6160141;23;20024;-84
2022/03/31 07:20:52;;;;;;;4.90;4.40;;;;;;;;;;6160503;23;20060;-84
2022/03/31 07:23:19;;;;;;;5.53;4.57;;;;;;;;;;6186357;23;20099;-83
2022/03/31 07:25:45;;;;;;;5.57;5.07;;;;;;;;;;6160201;23;20021;-84
2022/03/31 07:28:11;;;;;;;6.10;4.60;;;;;;;;;;6159832;23;20017;-84
2022/03/31 07:30:38;;;;;;;5.80;4.95;;;;;;;;;;6159356;23;20025;-85
2022/03/31 07:33:04;;;;;;;5.53;5.00;;;;;;;;;;6160039;23;20350;-84
2022/03/31 07:35:31;;;;;;;6.18;5.32;;;;;;;;;;6135975;23;20063;-84
2022/03/31 07:37:58;;;;;;;5.65;5.10;;;;;;;;;;6186666;23;20496;-85
2022/03/31 07:40:25;;;;;;;5.85;5.00;;;;;;;;;;6159967;23;20461;-85
2022/03/31 07:42:52;;;;;;;5.97;5.28;;;;;;;;;;6135759;23;20542;-83
2022/03/31 07:45:19;;;;;;;6.63;5.20;;;;;;;;;;6159675;23;20067;-84
2022/03/31 07:47:45;;;;;;;6.60;5.10;;;;;;;;;;6135434;23;20100;-84
2022/03/31 07:50:12;;;;;;;6.95;5.25;;;;;;;;;;6187026;23;20028;-86
2022/03/31 07:52:39;;;;;;;6.30;5.05;;;;;;;;;;6159540;23;20105;-85
2022/03/31 07:55:06;;;;;;;6.20;5.53;;;;;;;;;;6186818;23;20021;-84
2022/03/31 07:57:33;;;;;;;7.72;5.30;;;;;;;;;;6186638;23;20024;-84
2022/03/31 07:59:59;;;;;;;5.97;4.60;;;;;;;;;;6159480;23;20442;-85
2022/03/31 08:02:26;;;;;;;6.38;5.47;;;;;;;;;;6160090;23;20453;-84
2022/03/31 08:04:52;;;;;;;5.35;4.65;;;;;;;;;;6134652;23;20031;-86
2022/03/31 08:07:18;;;;;;;6.40;5.68;;;;;;;;;;6134530;23;20120;-87
2022/03/31 08:09:44;;;;;;;5.32;4.82;;;;;;;;;;6159524;23;20021;-85
2022/03/31 08:12:11;;;;;;;5.75;4.75;;;;;;;;;;6158905;23;20075;-86
2022/03/31 08:14:37;;;;;;;5.70;5.03;;;;;;;;;;6158792;23;20037;-86
2022/03/31 08:17:03;;;;;;;6.63;5.03;;;;;;;;;;6134055;23;20362;-86
2022/03/31 08:19:30;;;;;;;5.20;4.70;;;;;;;;;;6158986;23;20017;-85
2022/03/31 08:21:56;;;;;;;5.95;5.25;;;;;;;;;;6134401;23;20013;-86
2022/03/31 08:24:23;;;;;;;5.78;4.65;;;;;;;;;;6153339;23;20104;-86
2022/03/31 08:26:50;;;;;;;7.10;5.25;;;;;;;;;;6104399;23;20020;-85
2022/03/31 08:29:18;;;;;;;6.13;5.10;;;;;;;;;;6104567;23;20112;-87
2022/03/31 08:31:44;;;;;;;6.47;5.25;;;;;;;;;;6103887;23;20018;-84
2022/03/31 08:34:10;;;;;;;5.40;4.47;;;;;;;;;;6104066;23;20108;-84
2022/03/31 08:36:36;;;;;;;5.15;4.15;;;;;;;;;;6103332;23;20025;-86
2022/03/31 08:39:06;;;;;;;7.82;4.53;;;;;;;;;;6153433;23;20477;-87
2022/03/31 08:41:33;;;;;;;5.05;3.78;;;;;;;;;;6153132;23;20470;-85
2022/03/31 08:44:00;;;;;;;5.60;4.28;;;;;;;;;;6155072;23;20021;-86
2022/03/31 08:46:34;;;;;;;5.32;4.07;;;;;;;;;;6129977;23;20506;-84
2022/03/31 08:49:00;;;;;;;5.00;4.25;;;;;;;;;;6130579;23;20013;-85
2022/03/31 08:51:29;;;;;;;6.22;4.85;;;;;;;;;;6155039;23;20025;-86
2022/03/31 08:53:55;;;;;;;7.72;5.43;;;;;;;;;;6106198;23;20072;-86
2022/03/31 08:56:22;;;;;;;6.78;5.32;;;;;;;;;;6158097;23;20017;-85
2022/03/31 08:58:48;;;;;;;7.65;5.47;;;;;;;;;;6160473;23;20020;-84
2022/03/31 09:01:15;;;;;;;6.70;5.18;;;;;;;;;;6136142;23;20027;-86
2022/03/31 09:03:42;;;;;;;8.25;6.00;;;;;;;;;;6161403;23;20079;-83
2022/03/31 09:06:09;;;;;;;6.03;4.68;;;;;;;;;;6159653;23;20056;-86
2022/03/31 09:08:35;;;;;;;7.38;5.32;;;;;;;;;;6136238;23;20017;-87
2022/03/31 09:11:05;;;;;;;6.68;5.25;;;;;;;;;;6161368;23;20013;-85
2022/03/31 09:13:35;;;;;;;6.28;4.75;;;;;;;;;;6161263;23;20017;-86
2022/03/31 09:16:01;;;;;;;6.43;5.18;;;;;;;;;;6161416;23;20140;-85
2022/03/31 09:18:28;;;;;;;6.13;5.10;;;;;;;;;;6160416;23;20021;-86
2022/03/31 09:20:57;;;;;;;6.20;5.03;;;;;;;;;;6160321;23;20017;-85
2022/03/31 09:23:41;;;;;;;6.43;5.20;;;;;;;;;;6136103;23;20104;-86
2022/03/31 09:26:09;;;;;;;5.75;4.57;;;;;;;;;;6160927;23;20029;-86
2022/03/31 09:28:39;;;;;;;4.97;4.30;;;;;;;;;;6135869;23;20126;-85
2022/03/31 09:31:08;;;;;;;5.22;4.25;;;;;;;;;;6160712;23;20060;-86
2022/03/31 09:33:34;;;;;;;5.82;4.75;;;;;;;;;;6161067;23;20009;-86
2022/03/31 09:36:02;;;;;;;5.60;4.53;;;;;;;;;;6161194;23;20454;-84
2022/03/31 09:38:28;;;;;;;5.00;3.85;;;;;;;;;;6136676;23;20009;-87
2022/03/31 09:40:55;;;;;;;4.82;3.92;;;;;;;;;;6135291;23;20073;-85
2022/03/31 09:43:21;;;;;;;4.97;3.45;;;;;;;;;;6136171;23;20060;-83
2022/03/31 09:45:48;;;;;;;4.72;4.20;;;;;;;;;;6136271;23;20021;-83
2022/03/31 09:48:18;;;;;;;4.70;3.85;;;;;;;;;;6160820;23;20408;-86
2022/03/31 09:50:44;;;;;;;4.80;4.05;;;;;;;;;;6135940;23;20024;-86
2022/03/31 09:53:11;;;;;;;3.70;3.28;;;;;;;;;;6135966;23;20013;-86
2022/03/31 09:55:38;;;;;;;3.10;2.83;;;;;;;;;;6135257;23;20017;-86
2022/03/31 09:58:08;;;;;;;5.38;4.25;;;;;;;;;;6160341;23;20092;-83
2022/03/31 10:00:34;;;;;;;5.63;4.18;;;;;;;;;;6160515;23;20051;-84
2022/03/31 10:03:01;;;;;;;5.22;4.22;;;;;;;;;;6160670;23;20021;-83
2022/03/31 10:05:34;;;;;;;4.90;4.25;;;;;;;;;;6187786;23;20370;-83
2022/03/31 10:08:02;;;;;;;6.13;4.07;;;;;;;;;;6160765;23;20019;-83
2022/03/31 10:10:29;;;;;;;4.88;4.07;;;;;;;;;;6135796;23;20021;-82
2022/03/31 10:12:56;;;;;;;5.40;4.28;;;;;;;;;;6160367;23;20024;-83
2022/03/31 10:15:26;;;;;;;4.35;3.95;;;;;;;;;;6137075;23;20066;-83
2022/03/31 10:17:52;;;;;;;3.63;3.28;;;;;;;;;;6160956;23;20021;-83
2022/03/31 10:20:21;;;;;;;4.78;4.05;;;;;;;;;;6159931;23;20085;-83
2022/03/31 10:25:48;;;;;;;4.35;3.90;;;;;;;;;;6187167;23;20032;-83
2022/03/31 10:28:17;;;;;;;4.50;4.10;;;;;;;;;;6160012;23;20012;-81
2022/03/31 10:30:56;;;;;;;7.00;4.57;;;;;;;;;;6160337;23;20447;-82
2022/03/31 10:33:34;;;;;;;5.57;3.97;;;;;;;;;;6135356;23;20021;-83
2022/03/31 10:36:12;;;;;;;4.65;4.13;;;;;;;;;;6135588;23;20451;-85
2022/03/31 10:38:39;;;;;;;6.70;4.38;;;;;;;;;;6134964;23;20451;-83
2022/03/31 10:41:13;;;;;;;5.95;4.68;;;;;;;;;;6135411;23;20103;-85
2022/03/31 10:43:48;;;;;;;5.28;4.38;;;;;;;;;;6159582;23;20057;-84
2022/03/31 10:46:15;;;;;;;5.45;3.50;;;;;;;;;;6135590;23;20448;-84
2022/03/31 10:48:48;;;;;;;4.80;4.25;;;;;;;;;;6135649;23;20049;-84
2022/03/31 10:51:14;;;;;;;5.40;4.07;;;;;;;;;;6135382;23;20458;-84
2022/03/31 10:53:49;;;;;;;4.10;3.00;;;;;;;;;;6160136;23;20029;-84
2022/03/31 10:56:24;;;;;;;4.95;4.13;;;;;;;;;;6136061;23;20013;-83
2022/03/31 10:58:52;;;;;;;4.07;3.65;;;;;;;;;;6160405;23;20044;-84
2022/03/31 11:01:18;;;;;;;5.13;4.28;;;;;;;;;;6159635;23;20021;-84
2022/03/31 11:03:46;;;;;;;4.70;4.15;;;;;;;;;;6135187;23;20009;-84
2022/03/31 11:06:16;;;;;;;4.07;3.67;;;;;;;;;;6185401;23;20084;-84
2022/03/31 11:08:43;;;;;;;4.93;3.75;;;;;;;;;;6135390;23;20378;-84
2022/03/31 11:11:09;;;;;;;3.65;3.03;;;;;;;;;;6135436;23;20067;-83
2022/03/31 11:13:36;;;;;;;5.63;3.60;;;;;;;;;;6159558;23;20068;-84
2022/03/31 11:16:05;;;;;;;4.22;3.63;;;;;;;;;;6159594;23;20013;-85
2022/03/31 11:18:32;;;;;;;4.97;3.88;;;;;;;;;;6135575;23;20013;-84
2022/03/31 11:20:59;;;;;;;3.85;3.47;;;;;;;;;;6158773;23;20092;-85
2022/03/31 11:23:26;;;;;;;4.07;3.67;;;;;;;;;;6134927;23;20016;-84
2022/03/31 11:25:52;;;;;;;5.22;3.83;;;;;;;;;;6135676;23;20028;-84
2022/03/31 11:28:20;;;;;;;4.82;3.65;;;;;;;;;;6135527;23;20128;-86
2022/03/31 11:30:48;;;;;;;5.03;3.67;;;;;;;;;;6136082;23;20484;-86
2022/03/31 11:33:14;;;;;;;4.95;3.80;;;;;;;;;;6160632;23;20024;-85
2022/03/31 11:35:41;;;;;;;4.07;3.30;;;;;;;;;;6160197;23;20070;-87
2022/03/31 11:38:17;;;;;;;5.22;4.53;;;1.80;99.90;;;;;;6135876;23;20025;-86
2022/03/31 11:40:45;;;;;;;4.18;3.10;;;;;;;;;;6160600;23;20017;-86
2022/03/31 11:43:12;;;;;;;5.07;3.40;;;;;;;;;;6160984;23;20450;-82
2022/03/31 11:45:44;;;;;;;4.78;3.35;;;;;;;;;;6133886;23;20017;-84
2022/03/31 11:48:11;;;;;;;3.75;3.42;;;;;;;;;;6136107;23;20071;-85
2022/03/31 11:50:42;;;;;;;3.45;3.15;;;;;;;;;;6160104;23;20021;-84
2022/03/31 11:53:24;;;;;;;3.38;3.00;;;;;;;;;;6159610;23;20017;-85
2022/03/31 11:55:56;;;;;;;4.35;3.08;;;;;;;;;;6151900;23;20016;-85
2022/03/31 11:58:22;;;;;;;3.78;3.08;;;;;;;;;;6158538;23;20029;-85
2022/03/31 12:00:50;;;;;;;3.70;3.17;;;;;;;;;;6145553;23;20390;-83
2022/03/31 12:03:17;;;;;;;3.22;2.92;;;;;;;;;;6134659;23;20406;-83
2022/03/31 12:05:44;;;;;;;3.95;3.55;;;;;;;;;;6133867;23;20021;-83
2022/03/31 12:08:10;;;;;;;3.45;3.15;;;;;;;;;;6158746;23;20074;-83
2022/03/31 12:10:37;;;;;;;5.78;4.03;;;;;;;;;;6134298;23;20182;-83
2022/03/31 12:13:05;;;;;;;5.22;3.42;;;;;;;;;;6134375;23;20017;-82
2022/03/31 12:15:31;;;;;;;4.97;3.60;;;;;;;;;;6159282;23;20017;-83
2022/03/31 12:18:03;;;;;;;4.88;4.43;;;;;;;;;;6135354;23;20031;-83
2022/03/31 12:20:33;;;;;;;6.45;3.70;;;;;;;;;;6160096;23;20017;-82
2022/03/31 12:22:59;;;;;;;6.30;4.75;;;;;;;;;;6135730;23;20049;-82
2022/03/31 12:25:29;;;;;;;5.13;3.95;;;;;;;;;;6135178;23;20021;-85
2022/03/31 12:27:57;;;;;;;4.88;3.90;;;;;;;;;;6134626;23;20017;-82
2022/03/31 12:30:23;;;;;;;4.43;3.78;;;;;;;;;;6158521;23;20441;-84
2022/03/31 12:32:49;;;;;;;5.45;4.68;;;;;;;;;;6134459;23;20029;-82
2022/03/31 12:35:16;;;;;;;7.13;6.03;;;;;;;;;;6157006;23;20020;-83
2022/03/31 12:37:48;;;;;;;5.93;5.30;;;;;;;;;;6133418;23;20393;-82
2022/03/31 12:40:15;;;;;;;5.30;4.80;;;;;;;;;;6135154;23;20028;-83
2022/03/31 12:42:52;;;;;;;5.57;4.30;;;;;;;;;;6158885;23;20017;-85
2022/03/31 12:45:18;;;;;;;3.95;3.55;;;;;;;;;;6158460;23;20028;-82
2022/03/31 12:47:45;;;;;;;4.07;3.47;;;;;;;;;;6159596;23;20017;-83
2022/03/31 12:50:23;;;;;;;5.55;4.57;;;;;;;;;;6134028;23;20459;-83
2022/03/31 12:52:56;;;;;;;6.43;3.42;;;;;;;;;;6159293;23;20028;-82
2022/03/31 12:55:41;;;;;;;4.95;4.47;;;;;;;;;;6133374;23;20067;-83
2022/03/31 12:58:08;;;;;;;4.20;3.80;;;;;;;;;;6135717;23;20025;-82
2022/03/31 13:00:34;;;;;;;4.75;4.07;;;;;;;;;;6133897;23;20070;-84
2022/03/31 13:03:01;;;;;;;5.88;4.38;;;;;;;;;;6135035;23;20028;-84
2022/03/31 13:05:31;;;;;;;4.20;3.80;;;;;;;;;;6159108;23;20476;-84
2022/03/31 13:07:58;;;;;;;5.85;5.07;;;;;;;;;;6134219;23;20112;-85
2022/03/31 13:10:25;;;;;;;4.45;3.65;;;;;;;;;;6159681;23;20346;-83
2022/03/31 13:12:52;;;;;;;7.35;4.90;;;;;;;;;;6135130;23;20402;-84
2022/03/31 13:15:18;;;;;;;6.70;5.20;;;;;;;;;;6135370;23;20021;-84
2022/03/31 13:17:45;;;;;;;4.47;3.25;;;;;;;;;;6135856;23;20045;-83
2022/03/31 13:20:15;;;;;;;5.00;4.15;;;;;;;;;;6135768;23;20017;-84
2022/03/31 13:22:43;;;;;;;5.45;4.88;;;;;;;;;;6135370;23;20017;-84
2022/03/31 13:25:09;;;;;;;5.00;4.38;;;;;;;;;;6134965;23;20021;-84
2022/03/31 13:27:38;;;;;;;6.80;5.22;;;;;;;;;;6163656;23;20072;-92
2022/03/31 13:30:09;;;;;;;8.80;4.85;;;;;;;;;;6156189;23;20474;-86
2022/03/31 13:32:44;;;;;;;6.85;5.57;;;;;;;;;;6155525;23;20021;-89
2022/03/31 13:35:25;;;;;;;6.88;5.57;;;;;;;;;;6143780;23;20014;-93
2022/03/31 13:37:54;;;;;;;6.45;5.35;;;;;;;;;;6132878;23;20028;-94
2022/03/31 13:40:27;;;;;;;7.18;6.18;;;;;;;;;;6143792;23;20588;-93
2022/03/31 13:42:54;;;;;;;7.68;5.85;;;;;;;;;;6137655;23;20033;-91
2022/03/31 13:45:26;;;;;;;9.63;7.40;;;;;;;;;;6109925;23;20064;-92
2022/03/31 13:47:52;;;;;;;10.43;6.80;;;;;;;;;;6109473;23;20455;-86
2022/03/31 13:50:19;;;;;;;10.63;7.03;;;;;;;;;;6133016;23;20029;-83
2022/03/31 13:53:43;;;;;;;10.82;7.47;;;;;;;;;;6108462;23;20024;-85
2022/03/31 13:55:31;;;;;;;11.93;8.75;;;;;;;;;;6132146;23;20025;-85
2022/03/31 14:03:44;;;;;;;12.55;7.10;;;;;;;;;;6070404;23;20033;-87
2022/03/31 14:06:13;;;;;;;9.75;6.40;;;;;;;;;;6046812;23;20030;-87
2022/03/31 14:08:39;;;;;;;7.82;6.50;;;;;;;;;;6047260;23;20468;-88
2022/03/31 14:11:06;;;;;;;8.65;5.45;;;;;;;;;;6070448;23;20415;-91
2022/03/31 14:13:32;;;;;;;9.70;6.25;;;;;;;;;;6046120;23;20030;-87
2022/03/31 14:16:02;;;;;;;9.35;6.18;;;;;;;;;;6046161;23;20027;-88
2022/03/31 14:18:29;;;;;;;11.55;6.68;;;;;;;;;;6046945;23;20029;-88
2022/03/31 14:20:55;;;;;;;5.90;5.25;;;;;;;;;;6046698;23;20081;-90
2022/03/31 14:23:21;;;;;;;7.00;5.43;;;;;;;;;;6071678;23;20022;-87
2022/03/31 14:25:47;;;;;;;9.35;5.80;;;;;;;;;;6069564;23;20562;-94
2022/03/31 14:28:14;;;;;;;6.35;4.78;;;;;;;;;;6071809;23;20018;-90
2022/03/31 14:30:42;;;;;;;9.40;5.85;;;;;;;;;;6071521;23;20025;-88
2022/03/31 14:33:09;;;;;;;6.88;5.03;;;;;;;;;;6073432;23;20031;-90
2022/03/31 14:35:35;;;;;;;7.43;5.30;;;;;;;;;;6072946;23;20019;-90
2022/03/31 14:38:01;;;;;;;7.43;5.68;;;;;;;;;;6098011;23;20022;-89
2022/03/31 14:40:28;;;;;;;7.28;5.70;;;;;;;;;;6126992;23;20049;-88
2022/03/31 14:42:54;;;;;;;5.10;3.88;;;;;;;;;;6100124;23;20084;-91
2022/03/31 14:45:21;;;;;;;8.18;5.90;;;;;;;;;;6125180;23;20068;-89
2022/03/31 14:47:47;;;;;;;8.43;5.25;;;;;;;;;;6127743;23;20025;-94
2022/03/31 14:50:14;;;;;;;10.63;4.75;;;;;;;;;;6100306;23;20080;-84
2022/03/31 14:52:40;;;;;;;7.25;5.30;;;;;;;;;;6100944;23;20014;-86
2022/03/31 14:55:06;;;;;;;7.18;4.75;;;;;;;;;;6126058;23;20101;-85